createdAt,value
2022-12-31T00:05:14.805Z,100892.97
2022-12-31T00:15:16.545Z,100909.78
2022-12-31T00:25:18.462Z,100901.91
2022-12-31T00:35:20.303Z,100928.34
2022-12-31T00:45:21.996Z,100927.53
2022-12-31T00:55:23.606Z,100926.03
2022-12-31T01:05:30.804Z,100942.47
2022-12-31T01:15:37.090Z,100944.94
2022-12-31T01:25:41.928Z,100937.88
2022-12-31T01:35:43.576Z,100946.56
2022-12-31T01:45:48.877Z,100935.69
2022-12-31T01:55:57.992Z,100942.63
2022-12-31T02:06:16.241Z,100949.53
2022-12-31T02:16:47.142Z,100942.44
2022-12-31T02:27:10.254Z,100949.44
2022-12-31T02:37:14.669Z,100952.81
2022-12-31T02:47:38.187Z,100952.09
2022-12-31T02:57:46.874Z,100959.97
2022-12-31T03:07:49.159Z,100930.41
2022-12-31T03:17:55.787Z,100946.06
2022-12-31T03:27:57.709Z,100946.00
2022-12-31T03:37:59.738Z,100925.50
2022-12-31T03:48:02.751Z,100928.31
2022-12-31T03:58:04.624Z,100932.56
2022-12-31T04:08:06.299Z,100927.34
2022-12-31T04:18:13.789Z,100938.75
2022-12-31T04:28:15.459Z,100932.66
2022-12-31T04:38:17.262Z,100954.22
2022-12-31T04:48:21.652Z,100968.94
2022-12-31T04:58:23.822Z,100981.78
2022-12-31T05:08:25.552Z,100991.22
2022-12-31T05:18:27.573Z,101005.78
2022-12-31T05:28:29.728Z,100996.13
2022-12-31T05:38:31.862Z,101026.81
2022-12-31T05:48:34.125Z,101026.81
2022-12-31T05:58:35.740Z,101035.09
2022-12-31T06:08:37.763Z,101039.28
2022-12-31T06:18:39.503Z,101038.47
2022-12-31T06:28:41.449Z,101032.25
2022-12-31T06:38:46.478Z,101047.28
2022-12-31T06:48:48.189Z,101064.44
2022-12-31T06:58:51.150Z,101055.97
2022-12-31T07:09:08.909Z,101065.88
2022-12-31T07:19:35.745Z,101081.66
2022-12-31T07:29:43.297Z,101093.16
2022-12-31T07:39:51.970Z,101065.84
2022-12-31T07:49:56.870Z,101105.28
2022-12-31T08:00:20.767Z,101096.53
2022-12-31T08:10:39.445Z,101122.19
2022-12-31T08:21:35.150Z,101105.81
2022-12-31T08:32:06.732Z,101161.00
2022-12-31T08:42:20.951Z,101168.41
2022-12-31T08:52:32.909Z,101184.69
2022-12-31T09:02:52.298Z,101190.94
2022-12-31T09:13:11.583Z,101188.75
2022-12-31T09:23:13.760Z,101160.00
2022-12-31T09:33:26.328Z,101175.41
2022-12-31T09:44:01.131Z,101156.50
2022-12-31T09:54:08.100Z,101131.84
2022-12-31T10:04:47.145Z,101116.97
2022-12-31T10:15:12.126Z,101113.56
2022-12-31T10:25:39.687Z,101100.88
2022-12-31T10:35:54.717Z,101114.75
2022-12-31T10:46:30.310Z,101128.41
2022-12-31T10:56:58.272Z,101126.59
2022-12-31T11:07:29.049Z,101099.31
2022-12-31T11:17:45.216Z,101096.00
2022-12-31T11:28:20.701Z,101096.34
2022-12-31T11:38:30.493Z,101100.84
2022-12-31T11:48:36.848Z,101088.00
2022-12-31T11:58:42.127Z,101079.69
2022-12-31T12:08:44.546Z,101107.63
2022-12-31T12:18:51.403Z,101107.06
2022-12-31T12:28:53.087Z,101110.88
2022-12-31T12:39:06.093Z,101107.03
2022-12-31T12:49:18.486Z,101101.75
2022-12-31T12:59:51.180Z,101107.94
2022-12-31T13:10:32.749Z,101080.94
2022-12-31T13:20:45.718Z,101086.00
2022-12-31T13:30:53.610Z,101108.50
2022-12-31T13:41:04.335Z,101108.63
2022-12-31T13:51:44.858Z,101078.34
2022-12-31T14:01:56.649Z,101123.72
2022-12-31T14:12:14.105Z,101119.06
2022-12-31T14:22:24.823Z,101120.47
2022-12-31T14:33:04.906Z,101129.72
2022-12-31T14:43:21.873Z,101124.28
2022-12-31T14:53:25.841Z,101106.81
2022-12-31T15:03:45.079Z,101113.31
2022-12-31T15:14:03.014Z,101112.19
2022-12-31T15:24:34.545Z,101136.94
2022-12-31T15:34:37.253Z,101138.91
2022-12-31T15:44:48.360Z,101143.25
2022-12-31T15:54:51.653Z,101159.72
2022-12-31T16:04:55.499Z,101124.41
2022-12-31T16:15:05.133Z,101151.94
2022-12-31T16:25:32.669Z,101133.72
2022-12-31T16:35:37.331Z,101131.59
2022-12-31T16:45:39.129Z,101131.44
2022-12-31T16:55:41.257Z,101158.38
2022-12-31T17:05:58.871Z,101140.75
2022-12-31T17:16:02.044Z,101162.06
2022-12-31T17:26:11.203Z,101146.34
2022-12-31T17:36:21.127Z,101170.78
2022-12-31T17:46:26.589Z,101183.59
2022-12-31T17:56:28.517Z,101186.66
2022-12-31T18:06:30.362Z,101175.13
2022-12-31T18:16:32.032Z,101161.91
2022-12-31T18:26:34.675Z,101176.13
2022-12-31T18:36:36.455Z,101176.66
2022-12-31T18:46:38.130Z,101192.69
2022-12-31T18:56:46.344Z,101210.28
2022-12-31T19:06:49.788Z,101213.00
2022-12-31T19:16:55.259Z,101198.19
2022-12-31T19:26:57.269Z,101201.44
2022-12-31T19:36:59.303Z,101203.34
2022-12-31T19:47:03.297Z,101206.66
2022-12-31T19:57:05.016Z,101186.34
2022-12-31T20:07:06.821Z,101170.00
2022-12-31T20:17:08.722Z,101175.84
2022-12-31T20:27:18.134Z,101181.53
2022-12-31T20:37:20.241Z,101186.13
2022-12-31T20:47:22.176Z,101183.00
2022-12-31T20:57:26.566Z,101187.47
2022-12-31T21:07:30.443Z,101181.19
2022-12-31T21:17:38.316Z,101177.00
2022-12-31T21:27:40.044Z,101194.69
2022-12-31T21:37:59.009Z,101216.25
2022-12-31T21:48:21.241Z,101224.75
2022-12-31T21:58:27.707Z,101229.53
2022-12-31T22:08:31.317Z,101234.19
2022-12-31T22:18:38.795Z,101227.91
2022-12-31T22:28:43.371Z,101240.97
2022-12-31T22:38:46.992Z,101232.25
2022-12-31T22:48:50.063Z,101208.03
2022-12-31T22:58:51.642Z,101199.31
2022-12-31T23:09:11.916Z,101209.03
2022-12-31T23:19:35.588Z,101191.41
2022-12-31T23:29:46.634Z,101192.19
2022-12-31T23:39:49.240Z,101213.22
2022-12-31T23:49:50.859Z,101216.13
2022-12-31T23:59:52.595Z,101204.97
